KQNY/QNY METAR and TAF weather

Enter ICAO airport designator
Station Type Date Time Source
KQNY METAR 2010/01/10 23:55 UTC NOAA

KQNY 102355Z 00000KT 7SM FEW200 21/M09 A3020 RMK SLP207 T02061089 10206 20133 58026


Station Type Date Time Source
KQNY Decoded METAR 2010/01/10 23:55 UTC NOAA

Station name not available
Jan 10, 2010 - 06:55 PM EST / 2010.01.10 2355 UTC
Wind: Calm:0
Visibility: 7 mile(s):0
Sky conditions: mostly clear
Temperature: 69.1 F (20.6 C)
Dew Point: 16.0 F (-8.9 C)
Relative Humidity: 12%
Pressure (altimeter): 30.2 in. Hg (1022 hPa)
Pressure tendency: 0.08 inches (2.6 hPa) lower than three hours ago
ob: KQNY 102355Z 00000KT 7SM FEW200 21/M09 A3020 RMK SLP207 T02061089 10206 20133 58026
cycle: 0

Station Type Date Time Source
KQNY TAF 2010/04/21 21:56 UTC NOAA

TAF COR KQNY 212156Z 2122/2218 15011G19KT P6SM SCT060 BKN120
TEMPO 2122/2202 3SM -SHRA BR BKN060
FM220200 VRB06KT P6SM SCT020 BKN050


Example: see airport list